sensor_id;sensor_type;location;lat;lon;timestamp;P1;durP1;ratioP1;P2;durP2;ratioP2
25854;SDS011;13680;49.936;11.344;2023-02-11T00:00:03;95.55;;;39.13;;
25854;SDS011;13680;49.936;11.344;2023-02-11T00:02:30;91.55;;;41.30;;
25854;SDS011;13680;49.936;11.344;2023-02-11T00:04:57;87.13;;;38.03;;
25854;SDS011;13680;49.936;11.344;2023-02-11T00:07:22;77.53;;;35.20;;
25854;SDS011;13680;49.936;11.344;2023-02-11T00:09:48;79.72;;;34.22;;
25854;SDS011;13680;49.936;11.344;2023-02-11T00:12:13;89.57;;;38.08;;
25854;SDS011;13680;49.936;11.344;2023-02-11T00:14:39;85.85;;;36.20;;
25854;SDS011;13680;49.936;11.344;2023-02-11T00:17:05;81.63;;;35.60;;
25854;SDS011;13680;49.936;11.344;2023-02-11T00:19:30;83.05;;;35.90;;
25854;SDS011;13680;49.936;11.344;2023-02-11T00:21:56;80.30;;;35.83;;
25854;SDS011;13680;49.936;11.344;2023-02-11T00:24:21;91.38;;;37.08;;
25854;SDS011;13680;49.936;11.344;2023-02-11T00:26:46;86.90;;;36.33;;
25854;SDS011;13680;49.936;11.344;2023-02-11T00:29:12;81.22;;;35.00;;
25854;SDS011;13680;49.936;11.344;2023-02-11T00:31:37;81.45;;;34.95;;
25854;SDS011;13680;49.936;11.344;2023-02-11T00:34:02;82.78;;;34.88;;
25854;SDS011;13680;49.936;11.344;2023-02-11T00:36:28;78.60;;;33.83;;
25854;SDS011;13680;49.936;11.344;2023-02-11T00:38:54;75.60;;;34.13;;
25854;SDS011;13680;49.936;11.344;2023-02-11T00:41:21;73.65;;;33.67;;
25854;SDS011;13680;49.936;11.344;2023-02-11T00:43:46;76.43;;;34.30;;
25854;SDS011;13680;49.936;11.344;2023-02-11T00:46:12;88.15;;;34.17;;
25854;SDS011;13680;49.936;11.344;2023-02-11T00:48:38;83.40;;;34.58;;
25854;SDS011;13680;49.936;11.344;2023-02-11T00:51:04;85.10;;;34.85;;
25854;SDS011;13680;49.936;11.344;2023-02-11T00:53:30;93.50;;;39.58;;
25854;SDS011;13680;49.936;11.344;2023-02-11T00:55:56;97.85;;;41.58;;
25854;SDS011;13680;49.936;11.344;2023-02-11T00:58:22;93.53;;;40.22;;
25854;SDS011;13680;49.936;11.344;2023-02-11T01:00:47;82.43;;;36.15;;
25854;SDS011;13680;49.936;11.344;2023-02-11T01:03:12;81.32;;;35.95;;
25854;SDS011;13680;49.936;11.344;2023-02-11T01:05:38;81.60;;;34.65;;
25854;SDS011;13680;49.936;11.344;2023-02-11T01:08:03;78.65;;;36.35;;
25854;SDS011;13680;49.936;11.344;2023-02-11T01:10:29;80.47;;;37.15;;
25854;SDS011;13680;49.936;11.344;2023-02-11T01:12:54;84.90;;;36.45;;
25854;SDS011;13680;49.936;11.344;2023-02-11T01:15:20;87.63;;;37.80;;
25854;SDS011;13680;49.936;11.344;2023-02-11T01:17:46;83.88;;;37.60;;
25854;SDS011;13680;49.936;11.344;2023-02-11T01:20:16;83.05;;;35.85;;
25854;SDS011;13680;49.936;11.344;2023-02-11T01:22:44;92.97;;;37.03;;
25854;SDS011;13680;49.936;11.344;2023-02-11T01:25:09;84.57;;;36.33;;
25854;SDS011;13680;49.936;11.344;2023-02-11T01:27:35;84.65;;;35.83;;
25854;SDS011;13680;49.936;11.344;2023-02-11T01:30:01;89.25;;;35.75;;
25854;SDS011;13680;49.936;11.344;2023-02-11T01:32:28;81.35;;;35.28;;
25854;SDS011;13680;49.936;11.344;2023-02-11T01:34:53;82.18;;;36.70;;
25854;SDS011;13680;49.936;11.344;2023-02-11T01:37:18;80.32;;;36.70;;
25854;SDS011;13680;49.936;11.344;2023-02-11T01:39:44;85.43;;;36.08;;
25854;SDS011;13680;49.936;11.344;2023-02-11T01:42:16;82.63;;;37.17;;
25854;SDS011;13680;49.936;11.344;2023-02-11T01:44:43;86.55;;;37.88;;
25854;SDS011;13680;49.936;11.344;2023-02-11T01:47:09;84.28;;;35.85;;
25854;SDS011;13680;49.936;11.344;2023-02-11T01:49:38;79.53;;;34.97;;
25854;SDS011;13680;49.936;11.344;2023-02-11T01:54:45;80.25;;;36.63;;
25854;SDS011;13680;49.936;11.344;2023-02-11T01:57:36;77.10;;;35.08;;
25854;SDS011;13680;49.936;11.344;2023-02-11T02:00:20;81.75;;;35.92;;
25854;SDS011;13680;49.936;11.344;2023-02-11T02:05:33;85.63;;;36.38;;
25854;SDS011;13680;49.936;11.344;2023-02-11T02:10:31;84.15;;;35.35;;
25854;SDS011;13680;49.936;11.344;2023-02-11T02:12:59;84.88;;;36.70;;
25854;SDS011;13680;49.936;11.344;2023-02-11T02:15:34;83.05;;;36.35;;
25854;SDS011;13680;49.936;11.344;2023-02-11T02:18:05;84.50;;;36.25;;
25854;SDS011;13680;49.936;11.344;2023-02-11T02:29:00;75.25;;;35.20;;
25854;SDS011;13680;49.936;11.344;2023-02-11T02:37:30;76.25;;;34.85;;
25854;SDS011;13680;49.936;11.344;2023-02-11T02:40:23;80.90;;;33.60;;
25854;SDS011;13680;49.936;11.344;2023-02-11T02:42:52;78.78;;;35.40;;
25854;SDS011;13680;49.936;11.344;2023-02-11T02:45:19;77.35;;;34.30;;
25854;SDS011;13680;49.936;11.344;2023-02-11T02:47:44;82.68;;;37.50;;
25854;SDS011;13680;49.936;11.344;2023-02-11T02:50:09;77.15;;;34.97;;
25854;SDS011;13680;49.936;11.344;2023-02-11T02:55:51;75.78;;;33.75;;
25854;SDS011;13680;49.936;11.344;2023-02-11T02:58:32;84.63;;;36.40;;
25854;SDS011;13680;49.936;11.344;2023-02-11T03:01:16;76.50;;;33.45;;
25854;SDS011;13680;49.936;11.344;2023-02-11T03:07:02;84.97;;;36.13;;
25854;SDS011;13680;49.936;11.344;2023-02-11T03:09:31;81.22;;;34.90;;
25854;SDS011;13680;49.936;11.344;2023-02-11T03:12:04;83.07;;;36.13;;
25854;SDS011;13680;49.936;11.344;2023-02-11T03:14:31;78.43;;;35.47;;
25854;SDS011;13680;49.936;11.344;2023-02-11T03:16:58;84.95;;;35.55;;
25854;SDS011;13680;49.936;11.344;2023-02-11T03:19:34;86.22;;;35.58;;
25854;SDS011;13680;49.936;11.344;2023-02-11T03:22:03;84.25;;;36.22;;
25854;SDS011;13680;49.936;11.344;2023-02-11T03:24:32;82.90;;;35.30;;
25854;SDS011;13680;49.936;11.344;2023-02-11T03:27:05;80.78;;;34.08;;
25854;SDS011;13680;49.936;11.344;2023-02-11T03:32:13;77.15;;;34.05;;
25854;SDS011;13680;49.936;11.344;2023-02-11T03:34:58;78.60;;;34.50;;
25854;SDS011;13680;49.936;11.344;2023-02-11T03:37:41;77.30;;;33.35;;
25854;SDS011;13680;49.936;11.344;2023-02-11T03:40:58;80.53;;;35.38;;
25854;SDS011;13680;49.936;11.344;2023-02-11T03:43:07;81.88;;;34.80;;
25854;SDS011;13680;49.936;11.344;2023-02-11T03:45:37;78.38;;;32.47;;
25854;SDS011;13680;49.936;11.344;2023-02-11T03:48:14;80.95;;;34.90;;
25854;SDS011;13680;49.936;11.344;2023-02-11T03:50:44;73.88;;;32.63;;
25854;SDS011;13680;49.936;11.344;2023-02-11T03:53:11;81.75;;;34.95;;
25854;SDS011;13680;49.936;11.344;2023-02-11T03:55:39;81.65;;;36.17;;
25854;SDS011;13680;49.936;11.344;2023-02-11T03:58:06;78.90;;;34.10;;
25854;SDS011;13680;49.936;11.344;2023-02-11T04:00:32;75.07;;;33.63;;
25854;SDS011;13680;49.936;11.344;2023-02-11T04:02:59;73.05;;;33.38;;
25854;SDS011;13680;49.936;11.344;2023-02-11T04:05:24;73.35;;;31.52;;
25854;SDS011;13680;49.936;11.344;2023-02-11T04:07:50;72.93;;;33.17;;
25854;SDS011;13680;49.936;11.344;2023-02-11T04:10:15;76.18;;;31.88;;
25854;SDS011;13680;49.936;11.344;2023-02-11T04:12:40;76.25;;;33.38;;
25854;SDS011;13680;49.936;11.344;2023-02-11T04:15:06;75.47;;;32.60;;
25854;SDS011;13680;49.936;11.344;2023-02-11T04:17:32;67.65;;;30.83;;
25854;SDS011;13680;49.936;11.344;2023-02-11T04:19:57;77.78;;;33.30;;
25854;SDS011;13680;49.936;11.344;2023-02-11T04:22:22;70.75;;;31.83;;
25854;SDS011;13680;49.936;11.344;2023-02-11T04:24:48;66.30;;;30.08;;
25854;SDS011;13680;49.936;11.344;2023-02-11T04:27:13;70.97;;;30.05;;
25854;SDS011;13680;49.936;11.344;2023-02-11T04:29:38;68.47;;;29.38;;
25854;SDS011;13680;49.936;11.344;2023-02-11T04:32:03;73.40;;;31.63;;
25854;SDS011;13680;49.936;11.344;2023-02-11T04:34:29;69.65;;;31.08;;
25854;SDS011;13680;49.936;11.344;2023-02-11T04:36:54;72.28;;;32.97;;
25854;SDS011;13680;49.936;11.344;2023-02-11T04:39:19;68.30;;;31.00;;
25854;SDS011;13680;49.936;11.344;2023-02-11T04:41:45;65.38;;;28.75;;
25854;SDS011;13680;49.936;11.344;2023-02-11T04:44:10;68.30;;;29.83;;
25854;SDS011;13680;49.936;11.344;2023-02-11T04:46:35;64.93;;;30.27;;
25854;SDS011;13680;49.936;11.344;2023-02-11T04:49:01;68.22;;;29.52;;
25854;SDS011;13680;49.936;11.344;2023-02-11T04:51:27;65.82;;;29.83;;
25854;SDS011;13680;49.936;11.344;2023-02-11T04:53:52;66.20;;;30.30;;
25854;SDS011;13680;49.936;11.344;2023-02-11T04:56:17;72.72;;;30.63;;
25854;SDS011;13680;49.936;11.344;2023-02-11T04:58:43;69.68;;;29.80;;
25854;SDS011;13680;49.936;11.344;2023-02-11T05:01:08;70.43;;;30.23;;
25854;SDS011;13680;49.936;11.344;2023-02-11T05:03:37;67.07;;;30.80;;
25854;SDS011;13680;49.936;11.344;2023-02-11T05:06:03;64.63;;;30.52;;
25854;SDS011;13680;49.936;11.344;2023-02-11T05:08:29;65.10;;;30.30;;
25854;SDS011;13680;49.936;11.344;2023-02-11T05:10:54;61.13;;;29.50;;
25854;SDS011;13680;49.936;11.344;2023-02-11T05:13:20;64.72;;;30.55;;
25854;SDS011;13680;49.936;11.344;2023-02-11T05:15:46;61.85;;;29.95;;
25854;SDS011;13680;49.936;11.344;2023-02-11T05:18:11;66.15;;;28.25;;
25854;SDS011;13680;49.936;11.344;2023-02-11T05:20:38;59.63;;;28.13;;
25854;SDS011;13680;49.936;11.344;2023-02-11T05:23:05;64.60;;;29.00;;
25854;SDS011;13680;49.936;11.344;2023-02-11T05:25:30;58.75;;;28.50;;
25854;SDS011;13680;49.936;11.344;2023-02-11T05:27:55;63.70;;;28.42;;
25854;SDS011;13680;49.936;11.344;2023-02-11T05:30:21;59.53;;;29.75;;
25854;SDS011;13680;49.936;11.344;2023-02-11T05:32:46;63.42;;;28.75;;
25854;SDS011;13680;49.936;11.344;2023-02-11T05:35:12;68.57;;;29.92;;
25854;SDS011;13680;49.936;11.344;2023-02-11T05:37:37;68.13;;;28.83;;
25854;SDS011;13680;49.936;11.344;2023-02-11T05:40:03;63.83;;;28.75;;
25854;SDS011;13680;49.936;11.344;2023-02-11T05:42:29;69.53;;;28.73;;
25854;SDS011;13680;49.936;11.344;2023-02-11T05:44:54;61.22;;;28.30;;
25854;SDS011;13680;49.936;11.344;2023-02-11T05:47:19;59.72;;;27.50;;
25854;SDS011;13680;49.936;11.344;2023-02-11T05:49:45;63.33;;;27.75;;
25854;SDS011;13680;49.936;11.344;2023-02-11T05:52:10;61.67;;;28.58;;
25854;SDS011;13680;49.936;11.344;2023-02-11T05:54:35;64.32;;;28.20;;
25854;SDS011;13680;49.936;11.344;2023-02-11T05:57:00;55.03;;;26.85;;
25854;SDS011;13680;49.936;11.344;2023-02-11T05:59:26;64.22;;;28.70;;
25854;SDS011;13680;49.936;11.344;2023-02-11T06:01:51;60.92;;;27.98;;
25854;SDS011;13680;49.936;11.344;2023-02-11T06:04:16;57.50;;;27.75;;
25854;SDS011;13680;49.936;11.344;2023-02-11T06:06:41;65.22;;;29.13;;
25854;SDS011;13680;49.936;11.344;2023-02-11T06:09:08;61.13;;;28.33;;
25854;SDS011;13680;49.936;11.344;2023-02-11T06:11:34;61.22;;;27.48;;
25854;SDS011;13680;49.936;11.344;2023-02-11T06:14:00;53.40;;;26.15;;
25854;SDS011;13680;49.936;11.344;2023-02-11T06:16:25;60.17;;;27.52;;
25854;SDS011;13680;49.936;11.344;2023-02-11T06:18:50;60.10;;;27.35;;
25854;SDS011;13680;49.936;11.344;2023-02-11T06:21:16;57.75;;;26.63;;
25854;SDS011;13680;49.936;11.344;2023-02-11T06:23:41;56.05;;;26.65;;
25854;SDS011;13680;49.936;11.344;2023-02-11T06:26:08;63.10;;;28.20;;
25854;SDS011;13680;49.936;11.344;2023-02-11T06:28:39;57.90;;;27.05;;
25854;SDS011;13680;49.936;11.344;2023-02-11T06:31:05;56.15;;;26.17;;
25854;SDS011;13680;49.936;11.344;2023-02-11T06:33:30;62.95;;;28.20;;
25854;SDS011;13680;49.936;11.344;2023-02-11T06:35:56;57.55;;;26.45;;
25854;SDS011;13680;49.936;11.344;2023-02-11T06:38:21;60.20;;;27.40;;
25854;SDS011;13680;49.936;11.344;2023-02-11T06:40:47;59.33;;;27.45;;
25854;SDS011;13680;49.936;11.344;2023-02-11T06:43:14;60.85;;;27.08;;
25854;SDS011;13680;49.936;11.344;2023-02-11T06:45:39;59.40;;;27.65;;
25854;SDS011;13680;49.936;11.344;2023-02-11T06:48:04;60.50;;;26.90;;
25854;SDS011;13680;49.936;11.344;2023-02-11T06:50:30;57.10;;;27.33;;
25854;SDS011;13680;49.936;11.344;2023-02-11T06:52:55;65.43;;;28.27;;
25854;SDS011;13680;49.936;11.344;2023-02-11T06:55:20;64.80;;;29.08;;
25854;SDS011;13680;49.936;11.344;2023-02-11T06:57:45;64.70;;;29.58;;
25854;SDS011;13680;49.936;11.344;2023-02-11T07:00:11;59.40;;;26.92;;
25854;SDS011;13680;49.936;11.344;2023-02-11T07:02:37;69.50;;;28.90;;
25854;SDS011;13680;49.936;11.344;2023-02-11T07:05:04;59.03;;;26.92;;
25854;SDS011;13680;49.936;11.344;2023-02-11T07:07:30;62.05;;;27.92;;
25854;SDS011;13680;49.936;11.344;2023-02-11T07:09:56;66.85;;;29.05;;
25854;SDS011;13680;49.936;11.344;2023-02-11T07:12:21;62.17;;;28.35;;
25854;SDS011;13680;49.936;11.344;2023-02-11T07:14:47;62.83;;;27.52;;
25854;SDS011;13680;49.936;11.344;2023-02-11T07:17:12;60.78;;;26.83;;
25854;SDS011;13680;49.936;11.344;2023-02-11T07:19:37;57.85;;;26.42;;
25854;SDS011;13680;49.936;11.344;2023-02-11T07:22:03;60.03;;;27.60;;
25854;SDS011;13680;49.936;11.344;2023-02-11T07:24:28;51.72;;;24.70;;
25854;SDS011;13680;49.936;11.344;2023-02-11T07:26:54;57.53;;;28.42;;
25854;SDS011;13680;49.936;11.344;2023-02-11T07:29:19;63.38;;;29.15;;
25854;SDS011;13680;49.936;11.344;2023-02-11T07:31:44;64.07;;;27.65;;
25854;SDS011;13680;49.936;11.344;2023-02-11T07:34:09;63.10;;;27.88;;
25854;SDS011;13680;49.936;11.344;2023-02-11T07:36:35;62.97;;;27.90;;
25854;SDS011;13680;49.936;11.344;2023-02-11T07:39:00;61.60;;;27.08;;
25854;SDS011;13680;49.936;11.344;2023-02-11T07:41:26;63.08;;;27.13;;
25854;SDS011;13680;49.936;11.344;2023-02-11T07:43:52;55.97;;;25.17;;
25854;SDS011;13680;49.936;11.344;2023-02-11T07:46:21;55.63;;;25.38;;
25854;SDS011;13680;49.936;11.344;2023-02-11T07:48:48;55.75;;;25.75;;
25854;SDS011;13680;49.936;11.344;2023-02-11T07:53:41;52.17;;;24.85;;
25854;SDS011;13680;49.936;11.344;2023-02-11T07:56:08;58.20;;;26.90;;
25854;SDS011;13680;49.936;11.344;2023-02-11T07:58:34;55.30;;;25.88;;
25854;SDS011;13680;49.936;11.344;2023-02-11T08:01:07;58.55;;;25.98;;
25854;SDS011;13680;49.936;11.344;2023-02-11T08:03:35;54.58;;;25.85;;
25854;SDS011;13680;49.936;11.344;2023-02-11T08:06:05;55.35;;;25.75;;
25854;SDS011;13680;49.936;11.344;2023-02-11T08:08:31;55.55;;;26.02;;
25854;SDS011;13680;49.936;11.344;2023-02-11T08:10:57;55.00;;;26.63;;
25854;SDS011;13680;49.936;11.344;2023-02-11T08:13:22;53.55;;;26.10;;
25854;SDS011;13680;49.936;11.344;2023-02-11T08:15:48;53.95;;;25.33;;
25854;SDS011;13680;49.936;11.344;2023-02-11T08:18:13;54.17;;;26.48;;
25854;SDS011;13680;49.936;11.344;2023-02-11T08:20:38;54.05;;;24.95;;
25854;SDS011;13680;49.936;11.344;2023-02-11T08:23:05;52.25;;;26.55;;
25854;SDS011;13680;49.936;11.344;2023-02-11T08:25:31;53.20;;;26.33;;
25854;SDS011;13680;49.936;11.344;2023-02-11T08:27:57;50.28;;;24.55;;
25854;SDS011;13680;49.936;11.344;2023-02-11T08:30:22;53.35;;;25.80;;
25854;SDS011;13680;49.936;11.344;2023-02-11T08:32:48;51.50;;;25.92;;
25854;SDS011;13680;49.936;11.344;2023-02-11T08:35:13;52.42;;;25.10;;
25854;SDS011;13680;49.936;11.344;2023-02-11T08:37:38;49.78;;;24.70;;
25854;SDS011;13680;49.936;11.344;2023-02-11T08:40:04;53.75;;;26.05;;
25854;SDS011;13680;49.936;11.344;2023-02-11T08:42:30;52.42;;;25.70;;
25854;SDS011;13680;49.936;11.344;2023-02-11T08:44:55;50.00;;;25.65;;
25854;SDS011;13680;49.936;11.344;2023-02-11T08:47:20;50.67;;;25.33;;
25854;SDS011;13680;49.936;11.344;2023-02-11T08:49:46;56.30;;;25.42;;
25854;SDS011;13680;49.936;11.344;2023-02-11T08:52:11;52.25;;;27.25;;
25854;SDS011;13680;49.936;11.344;2023-02-11T08:54:36;57.15;;;26.40;;
25854;SDS011;13680;49.936;11.344;2023-02-11T08:57:02;53.63;;;26.60;;
25854;SDS011;13680;49.936;11.344;2023-02-11T08:59:29;57.17;;;25.90;;
25854;SDS011;13680;49.936;11.344;2023-02-11T09:01:54;50.97;;;24.83;;
25854;SDS011;13680;49.936;11.344;2023-02-11T09:04:20;52.78;;;23.65;;
25854;SDS011;13680;49.936;11.344;2023-02-11T09:06:45;52.00;;;26.90;;
25854;SDS011;13680;49.936;11.344;2023-02-11T09:09:12;51.45;;;24.50;;
25854;SDS011;13680;49.936;11.344;2023-02-11T09:11:39;49.90;;;25.05;;
25854;SDS011;13680;49.936;11.344;2023-02-11T09:14:05;49.20;;;24.27;;
25854;SDS011;13680;49.936;11.344;2023-02-11T09:16:33;53.45;;;24.35;;
25854;SDS011;13680;49.936;11.344;2023-02-11T09:19:00;50.35;;;24.42;;
25854;SDS011;13680;49.936;11.344;2023-02-11T09:21:27;46.22;;;23.58;;
25854;SDS011;13680;49.936;11.344;2023-02-11T09:23:53;45.53;;;23.48;;
25854;SDS011;13680;49.936;11.344;2023-02-11T09:26:19;49.67;;;24.60;;
25854;SDS011;13680;49.936;11.344;2023-02-11T09:28:47;49.83;;;23.63;;
25854;SDS011;13680;49.936;11.344;2023-02-11T09:31:16;47.70;;;23.65;;
25854;SDS011;13680;49.936;11.344;2023-02-11T09:33:44;50.85;;;24.52;;
25854;SDS011;13680;49.936;11.344;2023-02-11T09:36:13;53.03;;;24.10;;
25854;SDS011;13680;49.936;11.344;2023-02-11T09:38:40;52.67;;;24.02;;
25854;SDS011;13680;49.936;11.344;2023-02-11T09:41:12;50.35;;;24.13;;
25854;SDS011;13680;49.936;11.344;2023-02-11T09:43:50;49.40;;;24.02;;
25854;SDS011;13680;49.936;11.344;2023-02-11T09:46:18;47.90;;;24.88;;
25854;SDS011;13680;49.936;11.344;2023-02-11T09:48:46;50.80;;;25.65;;
25854;SDS011;13680;49.936;11.344;2023-02-11T09:51:25;55.03;;;25.95;;
25854;SDS011;13680;49.936;11.344;2023-02-11T09:54:02;49.67;;;24.90;;
25854;SDS011;13680;49.936;11.344;2023-02-11T09:56:31;50.03;;;24.95;;
25854;SDS011;13680;49.936;11.344;2023-02-11T09:58:57;49.30;;;24.50;;
25854;SDS011;13680;49.936;11.344;2023-02-11T10:13:12;51.08;;;24.17;;
25854;SDS011;13680;49.936;11.344;2023-02-11T10:18:55;47.95;;;24.90;;
25854;SDS011;13680;49.936;11.344;2023-02-11T10:24:18;45.45;;;24.10;;
25854;SDS011;13680;49.936;11.344;2023-02-11T10:26:44;51.65;;;24.00;;
25854;SDS011;13680;49.936;11.344;2023-02-11T10:31:49;49.97;;;24.73;;
25854;SDS011;13680;49.936;11.344;2023-02-11T10:34:15;49.78;;;24.38;;
25854;SDS011;13680;49.936;11.344;2023-02-11T10:36:41;51.38;;;24.88;;
25854;SDS011;13680;49.936;11.344;2023-02-11T10:39:15;47.05;;;20.90;;
25854;SDS011;13680;49.936;11.344;2023-02-11T10:41:46;47.88;;;23.42;;
25854;SDS011;13680;49.936;11.344;2023-02-11T10:47:12;49.15;;;23.80;;
25854;SDS011;13680;49.936;11.344;2023-02-11T10:49:43;50.30;;;25.55;;
25854;SDS011;13680;49.936;11.344;2023-02-11T10:52:11;45.90;;;23.30;;
25854;SDS011;13680;49.936;11.344;2023-02-11T10:54:39;46.30;;;23.83;;
25854;SDS011;13680;49.936;11.344;2023-02-11T10:57:04;56.20;;;24.75;;
25854;SDS011;13680;49.936;11.344;2023-02-11T10:59:34;46.55;;;24.15;;
25854;SDS011;13680;49.936;11.344;2023-02-11T11:04:48;52.85;;;25.70;;
25854;SDS011;13680;49.936;11.344;2023-02-11T11:07:21;50.00;;;24.38;;
25854;SDS011;13680;49.936;11.344;2023-02-11T11:09:54;48.13;;;24.48;;
25854;SDS011;13680;49.936;11.344;2023-02-11T11:12:28;47.95;;;24.63;;
25854;SDS011;13680;49.936;11.344;2023-02-11T11:15:39;52.80;;;24.00;;
25854;SDS011;13680;49.936;11.344;2023-02-11T11:17:43;52.10;;;23.23;;
25854;SDS011;13680;49.936;11.344;2023-02-11T11:22:43;51.97;;;24.55;;
25854;SDS011;13680;49.936;11.344;2023-02-11T11:25:22;49.97;;;24.40;;
25854;SDS011;13680;49.936;11.344;2023-02-11T11:27:54;53.70;;;25.88;;
25854;SDS011;13680;49.936;11.344;2023-02-11T11:30:24;49.85;;;25.20;;
25854;SDS011;13680;49.936;11.344;2023-02-11T11:32:55;53.58;;;25.27;;
25854;SDS011;13680;49.936;11.344;2023-02-11T11:35:24;48.22;;;24.15;;
25854;SDS011;13680;49.936;11.344;2023-02-11T11:37:55;54.22;;;24.67;;
25854;SDS011;13680;49.936;11.344;2023-02-11T11:40:25;52.55;;;24.33;;
25854;SDS011;13680;49.936;11.344;2023-02-11T11:43:03;46.08;;;23.60;;
25854;SDS011;13680;49.936;11.344;2023-02-11T11:45:39;60.28;;;25.08;;
25854;SDS011;13680;49.936;11.344;2023-02-11T11:48:18;56.28;;;25.17;;
25854;SDS011;13680;49.936;11.344;2023-02-11T11:50:52;51.05;;;26.48;;
25854;SDS011;13680;49.936;11.344;2023-02-11T11:56:19;50.10;;;24.85;;
25854;SDS011;13680;49.936;11.344;2023-02-11T11:58:46;57.92;;;24.92;;
25854;SDS011;13680;49.936;11.344;2023-02-11T12:04:24;54.33;;;27.08;;
25854;SDS011;13680;49.936;11.344;2023-02-11T12:09:29;58.25;;;27.98;;
25854;SDS011;13680;49.936;11.344;2023-02-11T12:15:12;56.30;;;27.08;;
25854;SDS011;13680;49.936;11.344;2023-02-11T12:23:33;59.50;;;27.50;;
25854;SDS011;13680;49.936;11.344;2023-02-11T12:26:13;51.35;;;25.05;;
25854;SDS011;13680;49.936;11.344;2023-02-11T12:28:51;52.80;;;24.98;;
25854;SDS011;13680;49.936;11.344;2023-02-11T12:31:22;52.20;;;26.35;;
25854;SDS011;13680;49.936;11.344;2023-02-11T12:40:00;57.55;;;26.83;;
25854;SDS011;13680;49.936;11.344;2023-02-11T12:42:32;53.58;;;25.20;;
25854;SDS011;13680;49.936;11.344;2023-02-11T12:45:25;53.15;;;26.27;;
25854;SDS011;13680;49.936;11.344;2023-02-11T12:50:55;58.33;;;26.33;;
25854;SDS011;13680;49.936;11.344;2023-02-11T12:53:43;56.25;;;27.08;;
25854;SDS011;13680;49.936;11.344;2023-02-11T12:59:01;60.45;;;26.73;;
25854;SDS011;13680;49.936;11.344;2023-02-11T13:01:40;55.80;;;28.15;;
25854;SDS011;13680;49.936;11.344;2023-02-11T13:04:18;60.50;;;27.60;;
25854;SDS011;13680;49.936;11.344;2023-02-11T13:06:52;58.38;;;26.55;;
25854;SDS011;13680;49.936;11.344;2023-02-11T13:09:24;54.47;;;26.98;;
25854;SDS011;13680;49.936;11.344;2023-02-11T13:11:54;53.70;;;26.02;;
25854;SDS011;13680;49.936;11.344;2023-02-11T13:14:44;54.22;;;25.38;;
25854;SDS011;13680;49.936;11.344;2023-02-11T13:17:17;55.78;;;25.10;;
25854;SDS011;13680;49.936;11.344;2023-02-11T13:19:54;52.65;;;26.67;;
25854;SDS011;13680;49.936;11.344;2023-02-11T13:22:27;54.72;;;25.75;;
25854;SDS011;13680;49.936;11.344;2023-02-11T13:28:09;54.55;;;27.13;;
25854;SDS011;13680;49.936;11.344;2023-02-11T13:30:45;60.60;;;27.35;;
25854;SDS011;13680;49.936;11.344;2023-02-11T13:35:45;52.90;;;27.20;;
25854;SDS011;13680;49.936;11.344;2023-02-11T13:38:23;57.42;;;26.65;;
25854;SDS011;13680;49.936;11.344;2023-02-11T13:43:55;53.28;;;26.52;;
25854;SDS011;13680;49.936;11.344;2023-02-11T13:47:15;57.30;;;25.80;;
25854;SDS011;13680;49.936;11.344;2023-02-11T13:51:56;54.33;;;28.08;;
25854;SDS011;13680;49.936;11.344;2023-02-11T13:54:45;54.53;;;26.30;;
25854;SDS011;13680;49.936;11.344;2023-02-11T13:59:52;54.40;;;27.08;;
25854;SDS011;13680;49.936;11.344;2023-02-11T14:02:43;54.35;;;27.10;;
25854;SDS011;13680;49.936;11.344;2023-02-11T14:09:07;48.20;;;24.92;;
25854;SDS011;13680;49.936;11.344;2023-02-11T14:11:53;49.80;;;25.20;;
25854;SDS011;13680;49.936;11.344;2023-02-11T14:17:36;53.15;;;25.30;;
25854;SDS011;13680;49.936;11.344;2023-02-11T14:20:03;51.00;;;26.27;;
25854;SDS011;13680;49.936;11.344;2023-02-11T14:22:59;55.70;;;26.38;;
25854;SDS011;13680;49.936;11.344;2023-02-11T14:25:24;52.33;;;25.90;;
25854;SDS011;13680;49.936;11.344;2023-02-11T14:28:02;55.03;;;26.23;;
25854;SDS011;13680;49.936;11.344;2023-02-11T14:33:32;49.33;;;24.98;;
25854;SDS011;13680;49.936;11.344;2023-02-11T14:41:39;55.63;;;27.38;;
25854;SDS011;13680;49.936;11.344;2023-02-11T14:44:29;51.28;;;25.55;;
25854;SDS011;13680;49.936;11.344;2023-02-11T14:46:54;54.97;;;25.88;;
25854;SDS011;13680;49.936;11.344;2023-02-11T14:51:55;52.47;;;26.15;;
25854;SDS011;13680;49.936;11.344;2023-02-11T14:54:25;49.97;;;26.52;;
25854;SDS011;13680;49.936;11.344;2023-02-11T14:57:12;51.40;;;24.60;;
25854;SDS011;13680;49.936;11.344;2023-02-11T15:00:00;52.15;;;26.58;;
25854;SDS011;13680;49.936;11.344;2023-02-11T15:02:31;58.60;;;27.15;;
25854;SDS011;13680;49.936;11.344;2023-02-11T15:10:34;48.40;;;25.30;;
25854;SDS011;13680;49.936;11.344;2023-02-11T15:12:57;52.53;;;25.20;;
25854;SDS011;13680;49.936;11.344;2023-02-11T15:15:25;51.17;;;24.60;;
25854;SDS011;13680;49.936;11.344;2023-02-11T15:17:52;49.33;;;25.92;;
25854;SDS011;13680;49.936;11.344;2023-02-11T15:20:23;50.97;;;25.88;;
25854;SDS011;13680;49.936;11.344;2023-02-11T15:22:52;49.85;;;25.70;;
25854;SDS011;13680;49.936;11.344;2023-02-11T15:25:21;51.70;;;25.20;;
25854;SDS011;13680;49.936;11.344;2023-02-11T15:27:49;46.50;;;25.20;;
25854;SDS011;13680;49.936;11.344;2023-02-11T15:30:21;52.78;;;24.75;;
25854;SDS011;13680;49.936;11.344;2023-02-11T15:35:14;53.80;;;25.25;;
25854;SDS011;13680;49.936;11.344;2023-02-11T15:37:40;55.53;;;24.65;;
25854;SDS011;13680;49.936;11.344;2023-02-11T15:40:10;50.25;;;24.63;;
25854;SDS011;13680;49.936;11.344;2023-02-11T15:42:40;49.42;;;24.90;;
25854;SDS011;13680;49.936;11.344;2023-02-11T15:45:20;48.63;;;25.20;;
25854;SDS011;13680;49.936;11.344;2023-02-11T15:48:40;52.25;;;25.35;;
25854;SDS011;13680;49.936;11.344;2023-02-11T15:50:56;53.05;;;26.00;;
25854;SDS011;13680;49.936;11.344;2023-02-11T15:55:49;52.45;;;27.10;;
25854;SDS011;13680;49.936;11.344;2023-02-11T15:58:17;53.03;;;27.10;;
25854;SDS011;13680;49.936;11.344;2023-02-11T16:00:46;48.47;;;25.92;;
25854;SDS011;13680;49.936;11.344;2023-02-11T16:03:21;56.38;;;25.20;;
25854;SDS011;13680;49.936;11.344;2023-02-11T16:05:49;50.03;;;24.98;;
25854;SDS011;13680;49.936;11.344;2023-02-11T16:08:26;49.28;;;26.15;;
25854;SDS011;13680;49.936;11.344;2023-02-11T16:10:57;48.88;;;25.15;;
25854;SDS011;13680;49.936;11.344;2023-02-11T16:13:32;50.42;;;24.88;;
25854;SDS011;13680;49.936;11.344;2023-02-11T16:16:18;48.47;;;25.35;;
25854;SDS011;13680;49.936;11.344;2023-02-11T16:18:51;51.80;;;24.63;;
25854;SDS011;13680;49.936;11.344;2023-02-11T16:21:20;48.72;;;24.45;;
25854;SDS011;13680;49.936;11.344;2023-02-11T16:23:54;47.38;;;25.20;;
25854;SDS011;13680;49.936;11.344;2023-02-11T16:28:50;51.63;;;24.30;;
25854;SDS011;13680;49.936;11.344;2023-02-11T16:31:15;48.83;;;26.33;;
25854;SDS011;13680;49.936;11.344;2023-02-11T16:33:41;52.35;;;24.85;;
25854;SDS011;13680;49.936;11.344;2023-02-11T16:36:14;60.08;;;26.10;;